Time;durP1;ratioP1;P1;durP2;ratioP2;P2;SDS_P1;SDS_P2;PMS_P1;PMS_P2;Temp;Humidity;BMP_temperature;BMP_pressure;BME280_temperature;BME280_humidity;BME280_pressure;Samples;Min_cycle;Max_cycle;Signal;HPM_P1;HPM_P2
2022/08/16 00:01:36;;;;;;;8.38;5.70;;;;;;;21.37;53.24;99148.16;5003832;28;20069;-40
2022/08/16 00:04:07;;;;;;;8.38;5.35;;;;;;;21.37;53.10;99148.16;5000349;28;20042;-39
2022/08/16 00:06:36;;;;;;;11.90;6.32;;;;;;;21.36;53.54;99135.94;5001709;28;20069;-37
2022/08/16 00:09:06;;;;;;;10.98;6.32;;;;;;;21.37;53.42;99148.16;5004683;28;20112;-37
2022/08/16 00:11:37;;;;;;;9.25;6.50;;;;;;;21.37;53.55;99148.16;5004436;28;20438;-38
2022/08/16 00:14:07;;;;;;;11.00;5.80;;;;;;;21.37;53.73;99143.75;4999621;28;20058;-39
2022/08/16 00:16:34;;;;;;;8.73;5.22;;;;;;;21.37;53.40;99142.88;5000442;28;20057;-40
2022/08/16 00:19:25;;;;;;;7.68;5.50;;;;;;;21.37;53.77;99140.25;5002127;28;20131;-37
2022/08/16 00:22:06;;;;;;;9.30;6.28;;;;;;;21.37;53.55;99143.75;4999050;28;20058;-39
2022/08/16 00:24:41;;;;;;;8.85;5.85;;;;;;;21.36;53.61;99139.41;5001727;28;20137;-37
2022/08/16 00:27:13;;;;;;;9.18;5.95;;;;;;;21.36;53.18;99147.31;5000219;28;20052;-40
2022/08/16 00:29:40;;;;;;;10.88;5.93;;;;;;;21.35;53.69;99150.03;5001864;28;20104;-37
2022/08/16 00:32:07;;;;;;;10.48;5.50;;;;;;;21.34;53.59;99148.38;5003104;28;20139;-36
2022/08/16 00:34:37;;;;;;;7.53;5.40;;;;;;;21.33;54.07;99147.50;5004503;28;20077;-39
2022/08/16 00:37:20;;;;;;;17.10;6.47;;;;;;;21.32;53.71;99157.19;5000152;28;20042;-39
2022/08/16 00:39:52;;;;;;;11.50;6.50;;;;;;;21.31;54.25;99150.22;4999998;28;20081;-36
2022/08/16 00:42:27;;;;;;;9.27;6.18;;;;;;;21.29;54.65;99167.94;5004706;28;20054;-35
2022/08/16 00:45:04;;;;;;;10.10;5.78;;;;;;;21.27;54.96;99174.22;5002742;28;20046;-36
2022/08/16 00:47:33;;;;;;;9.75;6.30;;;;;;;21.25;55.19;99176.97;4999464;28;20047;-36
2022/08/16 00:50:04;;;;;;;12.40;7.15;;;;;;;21.21;55.41;99172.78;4989731;28;20054;-38
2022/08/16 00:52:37;;;;;;;13.02;6.80;;;;;;;21.17;55.30;99168.66;4989075;28;20046;-40
2022/08/16 00:55:11;;;;;;;11.98;6.75;;;;;;;21.13;55.63;99173.28;4988503;28;20536;-39
2022/08/16 00:57:41;;;;;;;11.88;7.38;;;;;;;21.11;55.48;99166.41;4985890;28;20042;-41
2022/08/16 01:00:28;;;;;;;13.18;6.93;;;;;;;21.08;55.71;99163.97;4985384;28;20042;-37
2022/08/16 01:02:59;;;;;;;13.38;7.80;;;;;;;21.04;55.96;99164.16;4991951;28;20081;-37
2022/08/16 01:05:28;;;;;;;10.10;6.97;;;;;;;20.93;56.76;99177.97;4991788;28;20043;-38
2022/08/16 01:07:56;;;;;;;13.25;8.02;;;;;;;;;;4987169;28;20050;-35
2022/08/16 01:10:27;;;;;;;12.68;7.60;;;;;;;20.75;57.44;99185.16;4986788;28;20047;-38
2022/08/16 01:13:03;;;;;;;11.60;6.53;;;;;;;20.72;57.45;99164.28;4987785;28;20057;-35
2022/08/16 01:15:32;;;;;;;13.07;8.02;;;;;;;20.70;57.82;99160.88;4989211;28;20141;-37
2022/08/16 01:18:01;;;;;;;12.07;7.10;;;;;;;20.60;58.23;99165.00;4988342;28;20093;-38
2022/08/16 01:20:32;;;;;;;13.57;7.20;;;;;;;20.50;58.86;99162.06;4989443;28;20498;-34
2022/08/16 01:23:15;;;;;;;13.25;8.35;;;;;;;20.37;59.31;99154.03;4988024;28;20077;-37
2022/08/16 01:25:46;;;;;;;10.95;6.95;;;;;;;20.37;59.11;99154.03;4988979;28;20050;-37
2022/08/16 01:28:33;;;;;;;12.40;6.97;;;;;;;20.37;59.34;99154.03;4990775;28;20479;-37
2022/08/16 01:31:13;;;;;;;11.57;7.18;;;;;;;20.39;59.32;99144.28;4987003;28;20050;-34
2022/08/16 01:33:40;;;;;;;11.52;7.18;;;;;;;20.38;59.24;99135.56;4988675;28;20042;-37
2022/08/16 01:36:10;;;;;;;11.85;7.57;;;;;;;20.39;59.68;99134.59;4989814;28;20050;-34
2022/08/16 01:38:41;;;;;;;11.75;6.78;;;;;;;20.40;59.73;99127.59;4987576;28;20054;-38
2022/08/16 01:41:19;;;;;;;;;;;;;;;20.18;59.45;99128.81;4986705;28;20097;-35
2022/08/16 01:43:48;;;;;;;14.93;6.43;;;;;;;20.33;59.42;99134.94;4988703;28;19930;-36
2022/08/16 01:49:08;;;;;;;12.63;8.57;;;;;;;20.29;60.13;99131.66;5056045;28;20408;-36
2022/08/16 01:51:37;;;;;;;11.73;8.20;;;;;;;20.26;59.85;99126.59;5014907;28;20046;-34
2022/08/16 01:54:06;;;;;;;13.07;8.85;;;;;;;20.22;60.42;99125.06;5010554;28;20046;-33
2022/08/16 01:56:33;;;;;;;11.73;8.05;;;;;;;20.20;60.04;99126.97;5015786;28;20525;-34
2022/08/16 01:59:03;;;;;;;13.10;8.88;;;;;;;20.18;60.12;99131.44;5013131;28;20100;-34
2022/08/16 02:01:31;;;;;;;12.90;9.23;;;;;;;20.15;60.45;99136.88;5016101;28;20046;-38
2022/08/16 02:04:00;;;;;;;13.15;8.63;;;;;;;20.11;60.61;99135.34;5018542;28;20045;-35
2022/08/16 02:06:39;;;;;;;11.85;8.82;;;;;;;20.07;60.41;99133.84;5004208;28;20054;-34
2022/08/16 02:09:13;;;;;;;14.23;8.50;;;;;;;20.01;60.60;99143.78;5008523;28;20089;-35
2022/08/16 02:11:46;;;;;;;16.33;10.63;;;;;;;19.96;60.92;99140.50;5012774;28;20049;-33
2022/08/16 02:14:21;;;;;;;14.75;10.60;;;;;;;19.90;61.15;99125.09;5010642;28;20493;-38
2022/08/16 02:16:54;;;;;;;13.98;9.95;;;;;;;19.85;61.23;99133.25;5002663;28;20077;-35
2022/08/16 02:19:22;;;;;;;14.50;10.15;;;;;;;19.80;61.14;99126.56;5011396;28;20043;-35
2022/08/16 02:22:13;;;;;;;17.70;9.80;;;;;;;19.76;61.91;99124.09;5008062;28;20105;-37
2022/08/16 02:25:00;;;;;;;16.55;11.23;;;;;;;19.71;61.74;99123.50;5007276;28;20062;-32
2022/08/16 02:27:27;;;;;;;17.80;10.38;;;;;;;19.70;61.91;99124.44;5012286;28;20111;-35
2022/08/16 02:29:56;;;;;;;16.67;11.05;;;;;;;19.65;61.71;99121.22;5004779;28;20048;-34
2022/08/16 02:32:31;;;;;;;15.88;10.55;;;;;;;19.61;61.51;99122.31;5012545;28;20105;-35
2022/08/16 02:35:17;;;;;;;14.63;9.95;;;;;;;19.56;62.16;99119.09;5010321;28;20046;-35
2022/08/16 02:37:49;;;;;;;15.68;10.10;;;;;;;19.51;62.15;99120.22;5011026;28;20581;-34
2022/08/16 02:40:21;;;;;;;16.25;10.32;;;;;;;19.51;61.75;99114.09;5008064;28;20050;-33
2022/08/16 02:42:49;;;;;;;14.50;9.57;;;;;;;19.44;61.60;99113.59;5009288;28;20506;-34
2022/08/16 02:45:19;;;;;;;13.60;9.23;;;;;;;19.38;61.76;99116.53;5009454;28;20052;-34
2022/08/16 02:47:51;;;;;;;12.93;9.05;;;;;;;19.36;61.48;99105.28;5010218;28;20061;-35
2022/08/16 02:50:27;;;;;;;16.17;9.25;;;;;;;19.32;61.76;99109.03;5009443;28;20077;-33
2022/08/16 02:53:14;;;;;;;13.90;8.60;;;;;;;19.27;61.61;99104.88;5009762;28;20092;-36
2022/08/16 02:55:44;;;;;;;13.65;8.43;;;;;;;19.26;61.81;99097.91;5006885;28;20077;-36
2022/08/16 02:58:15;;;;;;;16.67;9.77;;;;;;;19.23;61.83;99100.72;5008710;28;20077;-37
2022/08/16 03:00:42;;;;;;;13.50;9.65;;;;;;;19.20;61.76;99095.63;4994654;28;20058;-37
2022/08/16 03:03:16;;;;;;;15.18;10.32;;;;;;;19.19;62.34;99096.56;4994078;28;20080;-35
2022/08/16 03:05:44;;;;;;;14.30;9.70;;;;;;;19.16;62.12;99096.72;4988626;28;20065;-35
2022/08/16 03:08:19;;;;;;;15.80;10.55;;;;;;;19.16;62.22;99101.97;4987408;28;20098;-34
2022/08/16 03:11:07;;;;;;;17.70;11.15;;;;;;;19.10;61.89;99111.03;4998047;28;20458;-34
2022/08/16 03:13:48;;;;;;;18.20;10.75;;;;;;;19.10;62.49;99107.53;4993057;28;20050;-34
2022/08/16 03:16:18;;;;;;;18.30;11.55;;;;;;;19.08;62.37;99112.03;4992768;28;20057;-37
2022/08/16 03:19:06;;;;;;;14.60;10.50;;;;;;;19.06;61.88;99111.22;5001403;28;20461;-34
2022/08/16 03:21:34;;;;;;;16.48;11.18;;;;;;;19.05;62.09;99107.75;4993342;28;20050;-36
2022/08/16 03:24:06;;;;;;;15.85;9.95;;;;;;;19.04;61.91;99105.22;4998967;28;20710;-33
2022/08/16 03:26:53;;;;;;;15.00;9.82;;;;;;;18.99;62.20;99108.91;4990518;28;20078;-34
2022/08/16 03:29:26;;;;;;;18.52;11.32;;;;;;;18.96;62.20;99109.09;4995281;28;20125;-35
2022/08/16 03:31:57;;;;;;;16.75;10.85;;;;;;;18.94;62.70;99105.69;4992166;28;20464;-35
2022/08/16 03:34:26;;;;;;;17.60;11.02;;;;;;;18.92;63.26;99110.19;4997022;28;20060;-36
2022/08/16 03:36:53;;;;;;;16.10;10.43;;;;;;;18.91;62.81;99116.34;4988307;28;20081;-37
2022/08/16 03:39:21;;;;;;;17.05;11.90;;;;;;;18.88;63.37;99112.13;4997092;28;20046;-36
2022/08/16 03:41:49;;;;;;;22.83;11.95;;;;;;;18.87;63.41;99114.81;4991490;28;20465;-37
2022/08/16 03:44:25;;;;;;;22.35;11.93;;;;;;;18.84;63.78;99117.59;4992220;28;20046;-35
2022/08/16 03:47:11;;;;;;;21.70;13.02;;;;;;;18.80;63.63;99116.91;4995824;28;20104;-36
2022/08/16 03:49:46;;;;;;;20.02;12.85;;;;;;;18.79;62.87;99122.25;4992849;28;20060;-35
2022/08/16 03:52:18;;;;;;;22.67;14.05;;;;;;;18.79;63.04;99122.25;5000557;28;20133;-35
2022/08/16 03:54:47;;;;;;;23.33;13.63;;;;;;;18.78;63.02;99131.06;4992110;28;20461;-33
2022/08/16 03:57:22;;;;;;;25.67;14.82;;;;;;;18.78;63.37;99136.28;4990640;28;20775;-34
2022/08/16 03:59:58;;;;;;;25.25;15.15;;;;;;;18.77;63.80;99137.22;4997982;28;20060;-35
2022/08/16 04:02:25;;;;;;;26.40;15.02;;;;;;;18.75;64.07;99143.38;4996105;28;20053;-34
2022/08/16 04:04:57;;;;;;;30.50;14.75;;;;;;;18.74;64.17;99136.44;4998176;28;20410;-33
2022/08/16 04:07:24;;;;;;;30.17;16.58;;;;;;;18.74;64.07;99139.06;4997971;28;20052;-33
2022/08/16 04:09:51;;;;;;;25.92;15.52;;;;;;;18.74;63.92;99139.06;4989718;28;20051;-37
2022/08/16 04:12:18;;;;;;;33.88;17.02;;;;;;;18.73;63.77;99139.16;4989357;28;20042;-35
2022/08/16 04:15:08;;;;;;;29.90;16.52;;;;;;;18.73;63.75;99140.00;4991547;28;20050;-33
2022/08/16 04:17:35;;;;;;;28.65;16.30;;;;;;;18.72;63.63;99142.69;4995004;28;20042;-37
2022/08/16 04:20:07;;;;;;;30.98;17.63;;;;;;;18.71;64.30;99141.84;5000991;28;20488;-34
2022/08/16 04:22:54;;;;;;;36.03;18.33;;;;;;;18.66;64.38;99133.38;4990862;28;20498;-36
2022/08/16 04:25:22;;;;;;;31.85;17.23;;;;;;;18.67;64.26;99142.94;4993233;28;20129;-36
2022/08/16 04:27:49;;;;;;;35.17;17.83;;;;;;;18.68;64.65;99151.66;4994065;28;20425;-35
2022/08/16 04:30:21;;;;;;;32.42;16.52;;;;;;;18.66;64.63;99154.34;4988684;28;20363;-37
2022/08/16 04:33:01;;;;;;;31.33;17.88;;;;;;;18.66;64.32;99156.97;4998967;28;20080;-36
2022/08/16 04:35:31;;;;;;;33.88;17.48;;;;;;;18.65;64.67;99165.78;4991506;28;20046;-37
2022/08/16 04:38:00;;;;;;;33.83;17.08;;;;;;;18.64;64.52;99164.06;4999348;28;20401;-37
2022/08/16 04:40:46;;;;;;;31.70;16.23;;;;;;;18.64;64.20;99177.16;4992167;28;20412;-36
2022/08/16 04:43:15;;;;;;;35.53;17.63;;;;;;;18.65;64.36;99175.41;4987793;28;20697;-36
2022/08/16 04:45:43;;;;;;;30.05;17.27;;;;;;;18.65;64.13;99180.66;4991238;28;20151;-36
2022/08/16 04:48:10;;;;;;;30.75;17.13;;;;;;;18.64;64.39;99179.78;4986598;28;20050;-36
2022/08/16 04:50:48;;;;;;;29.63;15.93;;;;;;;18.65;64.09;99178.88;4992887;28;20046;-35
2022/08/16 04:53:15;;;;;;;31.75;17.70;;;;;;;18.62;64.54;99174.63;4991069;28;20046;-35
2022/08/16 04:55:44;;;;;;;33.05;17.83;;;;;;;18.61;64.98;99172.09;4993426;28;20046;-38
2022/08/16 04:58:11;;;;;;;34.15;17.50;;;;;;;18.60;64.50;99170.38;4995736;28;20041;-35
2022/08/16 05:00:59;;;;;;;33.88;17.92;;;;;;;18.58;65.41;99167.84;4984189;28;20141;-34
2022/08/16 05:03:26;;;;;;;34.95;19.00;;;;;;;18.57;65.37;99165.28;4984465;28;20050;-37
2022/08/16 05:05:53;;;;;;;30.88;17.92;;;;;;;18.57;65.19;99160.03;4992613;28;20081;-35
2022/08/16 05:08:27;;;;;;;31.27;17.90;;;;;;;18.55;64.82;99167.16;4999391;28;20142;-36
2022/08/16 05:10:58;;;;;;;29.30;17.25;;;;;;;18.52;65.31;99170.78;4987599;28;20108;-36
2022/08/16 05:13:29;;;;;;;31.00;17.38;;;;;;;18.49;65.53;99169.19;4990861;28;20057;-36
2022/08/16 05:16:15;;;;;;;34.05;17.42;;;;;;;18.45;65.53;99162.38;4996455;28;20053;-37
2022/08/16 05:18:47;;;;;;;37.22;18.45;;;;;;;18.45;66.19;99166.78;5001826;28;20081;-35
2022/08/16 05:21:14;;;;;;;36.30;19.13;;;;;;;18.43;65.69;99166.84;4994094;28;20057;-38
2022/08/16 05:23:41;;;;;;;39.80;20.05;;;;;;;18.42;66.17;99166.91;4990671;28;20050;-39
2022/08/16 05:26:23;;;;;;;34.22;19.23;;;;;;;18.40;66.06;99169.59;4997073;28;20129;-35
2022/08/16 05:28:53;;;;;;;35.33;18.92;;;;;;;18.41;65.65;99176.53;4993695;28;20082;-38
2022/08/16 05:31:23;;;;;;;38.35;19.77;;;;;;;18.44;65.98;99175.56;4982917;28;20052;-36
2022/08/16 05:33:57;;;;;;;39.22;20.52;;;;;;;18.43;66.21;99177.34;4999817;28;20053;-36
2022/08/16 05:36:24;;;;;;;42.60;21.80;;;;;;;18.43;66.18;99185.19;4996293;28;20677;-38
2022/08/16 05:39:07;;;;;;;41.60;20.98;;;;;;;18.43;67.08;99190.44;4992278;28;20046;-37
2022/08/16 05:41:36;;;;;;;43.00;20.80;;;;;;;18.47;66.33;99186.75;4985444;28;20046;-37
2022/08/16 05:44:13;;;;;;;41.92;21.08;;;;;;;18.53;66.35;99189.97;4990989;28;20082;-35
2022/08/16 05:46:56;;;;;;;43.08;19.98;;;;;;;18.57;66.41;99196.75;4986457;28;20062;-36
2022/08/16 05:49:28;;;;;;;39.17;20.25;;;;;;;18.63;66.15;99201.72;4999211;28;20042;-35
2022/08/16 05:52:08;;;;;;;41.75;22.35;;;;;;;18.70;66.58;99203.09;4994304;28;20046;-36
2022/08/16 05:54:41;;;;;;;41.28;22.02;;;;;;;18.73;66.17;99202.94;4991571;28;20146;-36
2022/08/16 05:57:24;;;;;;;42.22;21.85;;;;;;;18.77;66.38;99201.00;4992437;28;20050;-34
2022/08/16 06:00:00;;;;;;;42.92;21.52;;;;;;;18.80;66.91;99203.47;4994618;28;20050;-37
2022/08/16 06:02:34;;;;;;;42.17;20.90;;;;;;;18.83;66.41;99211.22;4994466;28;20046;-36
2022/08/16 06:05:02;;;;;;;41.05;21.10;;;;;;;18.87;66.39;99217.13;4995543;28;20054;-35
2022/08/16 06:07:29;;;;;;;47.95;21.60;;;;;;;18.92;66.88;99217.75;4994743;28;20056;-35
2022/08/16 06:09:58;;;;;;;43.53;20.98;;;;;;;18.96;66.52;99210.56;4995040;28;20050;-35
2022/08/16 06:12:28;;;;;;;41.22;20.67;;;;;;;19.00;66.76;99212.97;4993939;28;20048;-37
2022/08/16 06:15:00;;;;;;;44.70;21.75;;;;;;;19.05;66.57;99217.13;4998296;28;20046;-33
2022/08/16 06:17:29;;;;;;;44.22;21.38;;;;;;;19.07;67.01;99215.28;4986181;28;20065;-36
2022/08/16 06:20:13;;;;;;;40.25;21.75;;;;;;;19.11;66.66;99216.81;4983575;28;20054;-36
2022/08/16 06:22:43;;;;;;;40.17;21.48;;;;;;;19.13;66.33;99215.00;4988871;28;20068;-37
2022/08/16 06:25:25;;;;;;;43.45;20.55;;;;;;;19.17;66.60;99216.53;4986662;28;20590;-37
2022/08/16 06:28:06;;;;;;;46.78;22.80;;;;;;;19.24;67.08;99220.53;4991177;28;20050;-36
2022/08/16 06:30:35;;;;;;;43.38;21.75;;;;;;;19.30;66.38;99221.97;4989667;28;20054;-39
2022/08/16 06:33:09;;;;;;;40.03;20.45;;;;;;;19.35;66.53;99224.38;4982805;28;20054;-38
2022/08/16 06:35:38;;;;;;;40.25;19.27;;;;;;;19.41;66.79;99224.03;4992849;28;20505;-35
2022/08/16 06:38:07;;;;;;;41.65;20.63;;;;;;;19.46;66.53;99237.78;4982353;28;20526;-35
2022/08/16 06:40:55;;;;;;;45.95;21.80;;;;;;;19.53;66.44;99238.31;4993522;28;20096;-38
2022/08/16 06:43:22;;;;;;;46.10;22.65;;;;;;;19.58;66.30;99235.41;4985783;28;20120;-40
2022/08/16 06:45:53;;;;;;;40.65;19.75;;;;;;;19.62;66.21;99236.97;4991312;28;20050;-37
2022/08/16 06:48:20;;;;;;;40.00;21.73;;;;;;;19.65;66.43;99232.38;4993001;28;20039;-34
2022/08/16 06:51:00;;;;;;;41.00;20.95;;;;;;;19.70;66.41;99234.78;4988956;28;20109;-36
2022/08/16 06:53:27;;;;;;;41.33;21.58;;;;;;;19.71;66.18;99231.22;4985061;28;20199;-35
2022/08/16 06:55:57;;;;;;;37.78;20.35;;;;;;;19.73;66.66;99239.00;4992965;28;20188;-36
2022/08/16 06:58:24;;;;;;;41.70;21.45;;;;;;;19.72;66.51;99240.78;4990863;28;20056;-37
2022/08/16 07:00:58;;;;;;;38.78;20.77;;;;;;;19.75;66.46;99242.38;4994723;28;20046;-36
2022/08/16 07:03:27;;;;;;;35.28;18.83;;;;;;;19.75;66.50;99252.91;4978842;28;20084;-35
2022/08/16 07:05:58;;;;;;;40.50;21.52;;;;;;;19.75;66.03;99245.88;4977155;28;20062;-37
2022/08/16 07:08:26;;;;;;;38.40;19.98;;;;;;;19.76;66.21;99255.44;4991736;28;24479;-36
2022/08/16 07:10:55;;;;;;;44.70;21.00;;;;;;;19.77;65.95;99258.94;4993147;28;20093;-38
2022/08/16 07:13:22;;;;;;;37.88;20.67;;;;;;;19.77;65.95;99256.31;4988082;28;20054;-37
2022/08/16 07:16:13;;;;;;;36.92;20.17;;;;;;;19.81;65.92;99267.47;4998566;28;20086;-36
2022/08/16 07:18:42;;;;;;;40.15;18.88;;;;;;;19.84;66.35;99275.19;4985742;28;20393;-36
2022/08/16 07:21:28;;;;;;;38.17;20.60;;;;;;;19.86;66.29;99276.00;4990608;28;20050;-36
2022/08/16 07:24:16;;;;;;;38.33;19.67;;;;;;;19.91;66.39;99284.47;4989867;28;20054;-40
2022/08/16 07:26:56;;;;;;;40.30;21.60;;;;;;;19.95;66.10;99287.75;4987614;28;20054;-38
2022/08/16 07:29:23;;;;;;;42.55;20.48;;;;;;;19.97;66.01;99276.25;4988250;28;20551;-36
2022/08/16 07:31:51;;;;;;;39.67;21.48;;;;;;;20.02;66.24;99287.38;4986639;28;20690;-37
2022/08/16 07:34:19;;;;;;;42.70;21.77;;;;;;;20.02;66.17;99287.38;4990391;28;20058;-36
2022/08/16 07:37:05;;;;;;;39.35;21.00;;;;;;;20.08;66.19;99295.84;4990587;28;20097;-36
2022/08/16 07:39:32;;;;;;;41.92;19.98;;;;;;;20.11;65.79;99293.06;4989919;28;20104;-37
2022/08/16 07:41:59;;;;;;;42.80;21.15;;;;;;;20.15;65.81;99297.22;4992600;28;20080;-37
2022/08/16 07:44:27;;;;;;;41.95;21.27;;;;;;;20.20;65.83;99303.09;4990839;28;20129;-35
2022/08/16 07:47:14;;;;;;;42.28;20.63;;;;;;;20.23;65.72;99300.28;4990563;28;20086;-35
2022/08/16 07:49:41;;;;;;;36.47;19.27;;;;;;;20.24;65.39;99302.00;4989394;28;20045;-36
2022/08/16 07:52:23;;;;;;;42.58;20.65;;;;;;;20.22;65.66;99298.59;4992487;28;20112;-37
2022/08/16 07:54:56;;;;;;;39.35;21.05;;;;;;;20.20;65.76;99305.72;4994705;28;20058;-39
2022/08/16 07:57:23;;;;;;;41.00;22.25;;;;;;;20.20;65.38;99305.72;4992331;28;20474;-38
2022/08/16 07:59:50;;;;;;;40.20;20.95;;;;;;;20.20;65.45;99310.97;4987842;28;20057;-36
2022/08/16 08:02:17;;;;;;;40.70;21.48;;;;;;;20.22;65.24;99313.50;4983382;28;20517;-38
2022/08/16 08:04:47;;;;;;;34.45;19.55;;;;;;;20.20;65.55;99312.75;4988418;28;20058;-36
2022/08/16 08:07:14;;;;;;;38.78;19.40;;;;;;;20.15;65.64;99300.72;4991512;28;20066;-35
2022/08/16 08:09:42;;;;;;;39.10;20.98;;;;;;;20.13;65.78;99309.63;4985287;28;20045;-37
2022/08/16 08:12:11;;;;;;;39.45;20.33;;;;;;;20.12;65.69;99314.00;4987192;28;20456;-38
2022/08/16 08:14:58;;;;;;;40.22;20.23;;;;;;;20.14;65.98;99319.19;4986692;28;20076;-37
2022/08/16 08:17:28;;;;;;;37.03;19.35;;;;;;;20.17;65.69;99321.66;4983894;28;20061;-38
2022/08/16 08:20:14;;;;;;;38.92;21.83;;;;;;;20.24;65.75;99323.03;4991767;28;20124;-40
2022/08/16 08:22:55;;;;;;;39.63;20.42;;;;;;;20.27;65.26;99328.09;4988273;28;20374;-37
2022/08/16 08:25:28;;;;;;;38.28;20.48;;;;;;;20.29;65.41;99328.00;4987654;28;20072;-36
2022/08/16 08:28:16;;;;;;;36.83;17.45;;;;;;;20.29;65.47;99331.50;4989712;28;20782;-34
2022/08/16 08:30:45;;;;;;;36.85;20.45;;;;;;;20.29;65.28;99331.50;4981727;28;20065;-37
2022/08/16 08:33:27;;;;;;;35.92;20.20;;;;;;;20.27;65.58;99338.59;4982149;28;20124;-37
2022/08/16 08:35:57;;;;;;;38.10;18.85;;;;;;;20.28;65.13;99345.59;4987794;28;20058;-36
2022/08/16 08:38:29;;;;;;;40.30;20.25;;;;;;;20.28;65.13;99350.84;4986248;28;20042;-39
2022/08/16 08:41:11;;;;;;;38.85;20.55;;;;;;;20.30;65.39;99353.41;4984344;28;20050;-36
2022/08/16 08:43:38;;;;;;;38.83;19.35;;;;;;;20.31;65.57;99354.22;4984920;28;20061;-37
2022/08/16 08:46:07;;;;;;;36.50;19.55;;;;;;;20.34;65.10;99348.81;4991181;28;20054;-35
2022/08/16 08:48:49;;;;;;;41.92;19.20;;;;;;;20.34;65.07;99348.81;4986703;28;20078;-36
2022/08/16 08:51:27;;;;;;;37.53;19.65;;;;;;;20.37;65.43;99360.00;4982771;28;20092;-37
2022/08/16 08:54:04;;;;;;;36.40;19.50;;;;;;;20.41;65.32;99361.50;4984231;28;20065;-35
2022/08/16 08:56:36;;;;;;;36.60;18.67;;;;;;;20.44;65.28;99363.16;4979674;28;20066;-35
2022/08/16 08:59:05;;;;;;;36.38;19.05;;;;;;;20.46;65.04;99363.91;4978422;28;20050;-35
2022/08/16 09:01:47;;;;;;;36.35;20.00;;;;;;;20.50;65.00;99365.44;4975193;28;20085;-36
2022/08/16 09:04:25;;;;;;;39.78;19.23;;;;;;;20.55;65.09;99368.66;4978210;28;20054;-34
2022/08/16 09:06:53;;;;;;;36.60;19.55;;;;;;;20.59;64.89;99373.75;4973157;28;20204;-36
2022/08/16 09:09:21;;;;;;;38.15;18.13;;;;;;;20.62;64.98;99374.44;4969930;28;20046;-36
2022/08/16 09:11:49;;;;;;;30.48;16.67;;;;;;;20.62;64.88;99368.31;4977110;28;20222;-35
2022/08/16 09:14:30;;;;;;;32.40;17.77;;;;;;;20.64;65.07;99367.28;4980698;28;20069;-35
2022/08/16 09:16:58;;;;;;;32.28;17.70;;;;;;;20.67;65.09;99372.38;4975604;28;20144;-35
2022/08/16 09:19:37;;;;;;;32.63;17.83;;;;;;;20.71;64.92;99373.06;4977280;28;20639;-36
2022/08/16 09:22:07;;;;;;;32.22;15.98;;;;;;;20.74;64.99;99378.16;4981205;28;20383;-34
2022/08/16 09:24:47;;;;;;;28.42;16.10;;;;;;;20.79;65.13;99370.84;4980317;28;20052;-36
2022/08/16 09:27:20;;;;;;;26.10;14.95;;;;;;;20.85;64.99;99379.34;4979909;28;20105;-35
2022/08/16 09:29:51;;;;;;;24.65;14.55;;;;;;;20.88;64.80;99379.16;4979148;28;20058;-36
2022/08/16 09:32:28;;;;;;;25.55;14.43;;;;;;;20.91;64.51;99374.59;4973844;28;20054;-37
2022/08/16 09:34:56;;;;;;;25.40;14.32;;;;;;;20.96;64.57;99376.97;4974603;28;20753;-35
2022/08/16 09:37:25;;;;;;;25.58;14.90;;;;;;;21.04;64.57;99366.84;4975802;28;20081;-37
2022/08/16 09:39:56;;;;;;;26.52;14.68;;;;;;;21.13;64.57;99372.50;4976187;28;20060;-35
2022/08/16 09:42:27;;;;;;;23.88;13.55;;;;;;;21.23;63.79;99362.28;4975613;28;20349;-38
2022/08/16 09:44:53;;;;;;;26.92;14.98;;;;;;;21.38;63.86;99376.38;4976211;28;20054;-35
2022/08/16 09:47:41;;;;;;;26.38;15.48;;;;;;;21.56;63.97;99380.56;4976963;28;20137;-35
2022/08/16 09:50:28;;;;;;;24.60;14.35;;;;;;;21.78;62.81;99376.66;4975134;28;20050;-37
2022/08/16 09:53:09;;;;;;;26.25;14.40;;;;;;;21.97;62.56;99378.16;4974388;28;20553;-37
2022/08/16 09:55:45;;;;;;;22.88;13.18;;;;;;;22.16;62.15;99371.75;4981395;28;20042;-38
2022/08/16 09:58:18;;;;;;;23.83;14.23;;;;;;;22.41;62.24;99368.44;4979552;28;20058;-35
2022/08/16 10:01:05;;;;;;;25.98;16.80;;;;;;;22.79;61.71;99374.00;4980018;28;20066;-36
2022/08/16 10:03:34;;;;;;;22.30;13.20;;;;;;;23.03;60.63;99374.19;4979875;28;20053;-37
2022/08/16 10:06:01;;;;;;;23.10;13.95;;;;;;;23.28;60.70;99380.50;4981357;28;20054;-35
2022/08/16 10:08:27;;;;;;;22.95;14.77;;;;;;;23.46;60.06;99377.59;4982120;28;20054;-37
2022/08/16 10:13:50;;;;;;;21.40;12.07;;;;;;;23.79;58.73;99378.88;4997407;28;21534;-36
2022/08/16 10:16:18;;;;;;;22.48;14.63;;;;;;;24.01;58.91;99393.25;4985625;28;20054;-36
2022/08/16 10:18:47;;;;;;;21.88;14.07;;;;;;;24.24;58.25;99383.72;4990936;28;20046;-35
2022/08/16 10:21:32;;;;;;;19.58;12.60;;;;;;;24.45;57.41;99390.25;4987416;28;20838;-39
2022/08/16 10:24:02;;;;;;;21.25;13.75;;;;;;;24.62;57.10;99397.81;4987390;28;20137;-36
2022/08/16 10:26:29;;;;;;;23.35;16.63;;;;;;;24.78;56.90;99386.09;4980274;28;20512;-39
2022/08/16 10:29:16;;;;;;;24.92;15.45;;;;;;;24.84;56.11;99385.66;4986921;28;20051;-37
2022/08/16 10:31:46;;;;;;;20.95;14.35;;;;;;;24.85;56.20;99387.38;4991469;28;20108;-38
2022/08/16 10:34:19;;;;;;;22.88;14.60;;;;;;;24.90;56.13;99390.53;4989082;28;20056;-38
2022/08/16 10:36:59;;;;;;;24.23;15.00;;;;;;;24.97;55.82;99390.09;4983027;28;20078;-37
2022/08/16 10:39:27;;;;;;;24.65;15.05;;;;;;;25.02;55.60;99387.94;4982954;28;20081;-37
2022/08/16 10:42:07;;;;;;;22.45;15.98;;;;;;;25.05;55.43;99385.06;4985518;28;20043;-37
2022/08/16 10:44:34;;;;;;;24.08;15.82;;;;;;;25.09;54.94;99394.47;4985731;28;20042;-37
2022/08/16 10:47:00;;;;;;;23.42;14.85;;;;;;;25.06;54.70;99386.75;4985153;28;20053;-40
2022/08/16 10:49:28;;;;;;;21.38;15.07;;;;;;;25.06;54.76;99388.56;4986256;28;20057;-36
2022/08/16 10:51:55;;;;;;;24.05;15.43;;;;;;;25.06;54.69;99389.38;4987027;28;20695;-36
2022/08/16 10:54:41;;;;;;;25.63;14.73;;;;;;;25.13;54.34;99381.84;4988995;28;20092;-36
2022/08/16 10:57:26;;;;;;;23.85;14.65;;;;;;;25.20;54.65;99379.59;4987754;28;20054;-38
2022/08/16 10:59:59;;;;;;;23.98;15.73;;;;;;;25.21;54.24;99382.13;4987241;28;20047;-39
2022/08/16 11:02:27;;;;;;;26.38;16.27;;;;;;;25.21;53.73;99381.25;4978542;28;20043;-38
2022/08/16 11:05:16;;;;;;;21.90;14.82;;;;;;;25.13;53.37;99385.31;4965917;28;20146;-36
2022/08/16 11:07:47;;;;;;;24.98;15.70;;;;;;;25.06;53.43;99384.09;4971256;28;20659;-36
2022/08/16 11:10:23;;;;;;;22.60;15.18;;;;;;;25.01;54.05;99391.53;4993854;28;20046;-38
2022/08/16 11:13:13;;;;;;;23.88;15.45;;;;;;;25.00;54.04;99395.16;4994960;28;20139;-39
2022/08/16 11:15:59;;;;;;;23.55;14.93;;;;;;;24.97;53.91;99398.03;4994751;28;20054;-41
2022/08/16 11:18:28;;;;;;;24.33;15.73;;;;;;;24.94;53.65;99400.91;4995161;28;20053;-37
2022/08/16 11:21:15;;;;;;;25.52;15.98;;;;;;;24.83;53.50;99407.81;4984147;28;20101;-36
2022/08/16 11:23:55;;;;;;;22.80;14.88;;;;;;;24.74;53.64;99401.38;4993873;28;20104;-38
2022/08/16 11:26:24;;;;;;;22.45;15.18;;;;;;;24.74;53.85;99411.13;4991387;28;20081;-40
2022/08/16 11:28:52;;;;;;;23.55;15.40;;;;;;;24.74;53.73;99411.13;4989314;28;20057;-39
2022/08/16 11:31:39;;;;;;;23.55;15.98;;;;;;;24.71;53.88;99417.50;4991498;28;20082;-37
2022/08/16 11:34:12;;;;;;;21.05;14.43;;;;;;;24.67;53.72;99421.31;4994517;28;20046;-41
2022/08/16 11:36:39;;;;;;;25.60;16.23;;;;;;;24.63;53.43;99420.69;4996554;28;20042;-37
2022/08/16 11:39:26;;;;;;;26.63;17.23;;;;;;;24.63;53.60;99425.97;5000604;28;20533;-37
2022/08/16 11:41:54;;;;;;;23.63;14.75;;;;;;;24.67;53.38;99428.41;4993008;28;20480;-41
2022/08/16 11:44:23;;;;;;;25.50;14.65;;;;;;;24.73;53.78;99430.63;4993521;28;20053;-38
2022/08/16 11:47:10;;;;;;;21.60;14.80;;;;;;;24.82;54.06;99423.81;4984461;28;20125;-37
2022/08/16 11:49:36;;;;;;;23.13;14.55;;;;;;;24.92;53.88;99429.31;4987174;28;20050;-38
2022/08/16 11:52:04;;;;;;;24.70;16.08;;;;;;;25.00;53.28;99432.25;4984829;28;20101;-37
2022/08/16 11:54:30;;;;;;;23.30;15.30;;;;;;;25.01;53.10;99433.94;4980221;28;20501;-39